sensor_id;sensor_type;location;lat;lon;timestamp;temperature;humidity
3727;DHT22;1879;45.876;12.300;2023-05-07T00:00:54;18.40;99.90
3727;DHT22;1879;45.876;12.300;2023-05-07T00:03:23;18.40;99.90
3727;DHT22;1879;45.876;12.300;2023-05-07T00:05:50;18.40;99.90
3727;DHT22;1879;45.876;12.300;2023-05-07T00:08:18;18.40;99.90
3727;DHT22;1879;45.876;12.300;2023-05-07T00:10:46;18.30;99.90
3727;DHT22;1879;45.876;12.300;2023-05-07T00:13:13;18.30;99.90
3727;DHT22;1879;45.876;12.300;2023-05-07T00:15:40;18.30;99.90
3727;DHT22;1879;45.876;12.300;2023-05-07T00:18:07;18.30;99.90
3727;DHT22;1879;45.876;12.300;2023-05-07T00:20:35;18.20;99.90
3727;DHT22;1879;45.876;12.300;2023-05-07T00:23:02;18.10;99.90
3727;DHT22;1879;45.876;12.300;2023-05-07T00:25:29;18.00;99.90
3727;DHT22;1879;45.876;12.300;2023-05-07T00:27:56;18.00;99.90
3727;DHT22;1879;45.876;12.300;2023-05-07T00:30:28;18.00;99.90
3727;DHT22;1879;45.876;12.300;2023-05-07T00:32:55;18.00;99.90
3727;DHT22;1879;45.876;12.300;2023-05-07T00:35:22;17.90;99.90
3727;DHT22;1879;45.876;12.300;2023-05-07T00:37:50;17.90;99.90
3727;DHT22;1879;45.876;12.300;2023-05-07T00:40:17;17.90;99.90
3727;DHT22;1879;45.876;12.300;2023-05-07T00:42:44;17.90;99.90
3727;DHT22;1879;45.876;12.300;2023-05-07T00:45:12;17.90;99.90
3727;DHT22;1879;45.876;12.300;2023-05-07T00:47:39;17.90;99.90
3727;DHT22;1879;45.876;12.300;2023-05-07T00:50:08;17.90;99.90
3727;DHT22;1879;45.876;12.300;2023-05-07T00:52:37;17.90;99.90
3727;DHT22;1879;45.876;12.300;2023-05-07T00:55:07;17.90;99.90
3727;DHT22;1879;45.876;12.300;2023-05-07T00:57:36;17.80;99.90
3727;DHT22;1879;45.876;12.300;2023-05-07T01:00:04;17.80;99.90
3727;DHT22;1879;45.876;12.300;2023-05-07T01:02:31;17.80;99.90
3727;DHT22;1879;45.876;12.300;2023-05-07T01:05:00;17.80;99.90
3727;DHT22;1879;45.876;12.300;2023-05-07T01:07:27;17.80;99.90
3727;DHT22;1879;45.876;12.300;2023-05-07T01:09:55;17.80;99.90
3727;DHT22;1879;45.876;12.300;2023-05-07T01:12:24;17.70;99.90
3727;DHT22;1879;45.876;12.300;2023-05-07T01:14:52;17.70;99.90
3727;DHT22;1879;45.876;12.300;2023-05-07T01:17:19;17.70;99.90
3727;DHT22;1879;45.876;12.300;2023-05-07T01:19:46;17.70;99.90
3727;DHT22;1879;45.876;12.300;2023-05-07T01:22:29;17.60;99.90
3727;DHT22;1879;45.876;12.300;2023-05-07T01:24:57;17.50;99.90
3727;DHT22;1879;45.876;12.300;2023-05-07T01:27:27;17.50;99.90
3727;DHT22;1879;45.876;12.300;2023-05-07T01:29:54;17.40;99.90
3727;DHT22;1879;45.876;12.300;2023-05-07T01:32:27;17.40;99.90
3727;DHT22;1879;45.876;12.300;2023-05-07T01:34:56;17.40;99.90
3727;DHT22;1879;45.876;12.300;2023-05-07T01:37:25;17.40;99.90
3727;DHT22;1879;45.876;12.300;2023-05-07T01:39:54;17.30;99.90
3727;DHT22;1879;45.876;12.300;2023-05-07T01:42:21;17.30;99.90
3727;DHT22;1879;45.876;12.300;2023-05-07T01:44:48;17.40;99.90
3727;DHT22;1879;45.876;12.300;2023-05-07T01:47:16;17.40;99.90
3727;DHT22;1879;45.876;12.300;2023-05-07T01:49:43;17.40;99.90
3727;DHT22;1879;45.876;12.300;2023-05-07T01:52:11;17.50;99.90
3727;DHT22;1879;45.876;12.300;2023-05-07T01:54:38;17.50;99.90
3727;DHT22;1879;45.876;12.300;2023-05-07T01:57:06;17.40;99.90
3727;DHT22;1879;45.876;12.300;2023-05-07T01:59:33;17.40;99.90
3727;DHT22;1879;45.876;12.300;2023-05-07T02:02:00;17.40;99.90
3727;DHT22;1879;45.876;12.300;2023-05-07T02:04:27;17.40;99.90
3727;DHT22;1879;45.876;12.300;2023-05-07T02:06:54;17.40;99.90
3727;DHT22;1879;45.876;12.300;2023-05-07T02:09:21;17.30;99.90
3727;DHT22;1879;45.876;12.300;2023-05-07T02:11:48;17.30;99.90
3727;DHT22;1879;45.876;12.300;2023-05-07T02:14:17;17.30;99.90
3727;DHT22;1879;45.876;12.300;2023-05-07T02:16:45;17.30;99.90
3727;DHT22;1879;45.876;12.300;2023-05-07T02:19:12;17.30;99.90
3727;DHT22;1879;45.876;12.300;2023-05-07T02:21:39;17.20;99.90
3727;DHT22;1879;45.876;12.300;2023-05-07T02:24:06;17.20;99.90
3727;DHT22;1879;45.876;12.300;2023-05-07T02:26:33;17.20;99.90
3727;DHT22;1879;45.876;12.300;2023-05-07T02:29:00;17.20;99.90
3727;DHT22;1879;45.876;12.300;2023-05-07T02:31:29;17.20;99.90
3727;DHT22;1879;45.876;12.300;2023-05-07T02:33:56;17.10;99.90
3727;DHT22;1879;45.876;12.300;2023-05-07T02:36:23;17.10;99.90
3727;DHT22;1879;45.876;12.300;2023-05-07T02:38:50;17.10;99.90
3727;DHT22;1879;45.876;12.300;2023-05-07T02:41:16;17.10;99.90
3727;DHT22;1879;45.876;12.300;2023-05-07T02:43:43;17.00;99.90
3727;DHT22;1879;45.876;12.300;2023-05-07T02:46:10;16.90;99.90
3727;DHT22;1879;45.876;12.300;2023-05-07T02:48:39;16.90;99.90
3727;DHT22;1879;45.876;12.300;2023-05-07T02:51:06;16.90;99.90
3727;DHT22;1879;45.876;12.300;2023-05-07T02:53:32;16.90;99.90
3727;DHT22;1879;45.876;12.300;2023-05-07T02:56:00;16.80;99.90
3727;DHT22;1879;45.876;12.300;2023-05-07T02:58:28;16.80;99.90
3727;DHT22;1879;45.876;12.300;2023-05-07T03:00:55;16.70;99.90
3727;DHT22;1879;45.876;12.300;2023-05-07T03:03:22;16.70;99.90
3727;DHT22;1879;45.876;12.300;2023-05-07T03:05:50;16.60;99.90
3727;DHT22;1879;45.876;12.300;2023-05-07T03:08:17;16.60;99.90
3727;DHT22;1879;45.876;12.300;2023-05-07T03:10:44;16.60;99.90
3727;DHT22;1879;45.876;12.300;2023-05-07T03:13:11;16.60;99.90
3727;DHT22;1879;45.876;12.300;2023-05-07T03:15:38;16.50;99.90
3727;DHT22;1879;45.876;12.300;2023-05-07T03:18:05;16.50;99.90
3727;DHT22;1879;45.876;12.300;2023-05-07T03:20:32;16.50;99.90
3727;DHT22;1879;45.876;12.300;2023-05-07T03:23:00;16.60;99.90
3727;DHT22;1879;45.876;12.300;2023-05-07T03:25:27;16.60;99.90
3727;DHT22;1879;45.876;12.300;2023-05-07T03:27:55;16.60;99.90
3727;DHT22;1879;45.876;12.300;2023-05-07T03:30:22;16.60;99.90
3727;DHT22;1879;45.876;12.300;2023-05-07T03:32:49;16.70;99.90
3727;DHT22;1879;45.876;12.300;2023-05-07T03:35:16;16.70;99.90
3727;DHT22;1879;45.876;12.300;2023-05-07T03:37:43;16.70;99.90
3727;DHT22;1879;45.876;12.300;2023-05-07T03:40:12;16.60;99.90
3727;DHT22;1879;45.876;12.300;2023-05-07T03:42:39;16.50;99.90
3727;DHT22;1879;45.876;12.300;2023-05-07T03:45:07;16.40;99.90
3727;DHT22;1879;45.876;12.300;2023-05-07T03:47:34;16.40;99.90
3727;DHT22;1879;45.876;12.300;2023-05-07T03:50:02;16.40;99.90
3727;DHT22;1879;45.876;12.300;2023-05-07T03:52:30;16.30;99.90
3727;DHT22;1879;45.876;12.300;2023-05-07T03:54:57;16.30;99.90
3727;DHT22;1879;45.876;12.300;2023-05-07T03:57:25;16.30;99.90
3727;DHT22;1879;45.876;12.300;2023-05-07T03:59:52;16.30;99.90
3727;DHT22;1879;45.876;12.300;2023-05-07T04:02:19;16.30;99.90
3727;DHT22;1879;45.876;12.300;2023-05-07T04:04:48;16.30;99.90
3727;DHT22;1879;45.876;12.300;2023-05-07T04:07:15;16.20;99.90
3727;DHT22;1879;45.876;12.300;2023-05-07T04:09:42;16.20;99.90
3727;DHT22;1879;45.876;12.300;2023-05-07T04:12:09;16.30;99.90
3727;DHT22;1879;45.876;12.300;2023-05-07T04:14:37;16.30;99.90
3727;DHT22;1879;45.876;12.300;2023-05-07T04:17:04;16.30;99.90
3727;DHT22;1879;45.876;12.300;2023-05-07T04:19:33;16.20;99.90
3727;DHT22;1879;45.876;12.300;2023-05-07T04:22:00;16.20;99.90
3727;DHT22;1879;45.876;12.300;2023-05-07T04:24:27;16.20;99.90
3727;DHT22;1879;45.876;12.300;2023-05-07T04:26:54;16.30;99.90
3727;DHT22;1879;45.876;12.300;2023-05-07T04:29:21;16.30;99.90
3727;DHT22;1879;45.876;12.300;2023-05-07T04:31:49;16.40;99.90
3727;DHT22;1879;45.876;12.300;2023-05-07T04:34:16;16.40;99.90
3727;DHT22;1879;45.876;12.300;2023-05-07T04:36:43;16.40;99.90
3727;DHT22;1879;45.876;12.300;2023-05-07T04:39:10;16.40;99.90
3727;DHT22;1879;45.876;12.300;2023-05-07T04:41:37;16.40;99.90
3727;DHT22;1879;45.876;12.300;2023-05-07T04:44:04;16.30;99.90
3727;DHT22;1879;45.876;12.300;2023-05-07T04:46:32;16.40;99.90
3727;DHT22;1879;45.876;12.300;2023-05-07T04:49:00;16.40;99.90
3727;DHT22;1879;45.876;12.300;2023-05-07T04:51:27;16.40;99.90
3727;DHT22;1879;45.876;12.300;2023-05-07T04:53:54;16.40;99.90
3727;DHT22;1879;45.876;12.300;2023-05-07T04:56:21;16.50;99.90
3727;DHT22;1879;45.876;12.300;2023-05-07T04:58:48;16.60;99.90
3727;DHT22;1879;45.876;12.300;2023-05-07T05:01:15;16.70;99.90
3727;DHT22;1879;45.876;12.300;2023-05-07T05:03:42;16.70;99.90
3727;DHT22;1879;45.876;12.300;2023-05-07T05:06:10;16.80;99.90
3727;DHT22;1879;45.876;12.300;2023-05-07T05:08:37;17.00;99.90
3727;DHT22;1879;45.876;12.300;2023-05-07T05:11:04;17.10;99.90
3727;DHT22;1879;45.876;12.300;2023-05-07T05:13:31;17.20;99.90
3727;DHT22;1879;45.876;12.300;2023-05-07T05:15:58;17.30;99.90
3727;DHT22;1879;45.876;12.300;2023-05-07T05:18:25;17.40;99.90
3727;DHT22;1879;45.876;12.300;2023-05-07T05:20:52;17.50;99.90
3727;DHT22;1879;45.876;12.300;2023-05-07T05:23:20;17.60;99.90
3727;DHT22;1879;45.876;12.300;2023-05-07T05:25:47;17.70;99.90
3727;DHT22;1879;45.876;12.300;2023-05-07T05:28:14;17.80;99.90
3727;DHT22;1879;45.876;12.300;2023-05-07T05:30:41;18.00;99.90
3727;DHT22;1879;45.876;12.300;2023-05-07T05:33:08;18.10;99.90
3727;DHT22;1879;45.876;12.300;2023-05-07T05:35:35;18.20;99.90
3727;DHT22;1879;45.876;12.300;2023-05-07T05:38:02;18.30;99.90
3727;DHT22;1879;45.876;12.300;2023-05-07T05:40:31;18.40;99.90
3727;DHT22;1879;45.876;12.300;2023-05-07T05:42:58;18.40;99.90
3727;DHT22;1879;45.876;12.300;2023-05-07T05:45:25;18.40;99.90
3727;DHT22;1879;45.876;12.300;2023-05-07T05:47:52;18.40;99.90
3727;DHT22;1879;45.876;12.300;2023-05-07T05:50:19;18.40;99.90
3727;DHT22;1879;45.876;12.300;2023-05-07T05:52:46;18.50;99.90
3727;DHT22;1879;45.876;12.300;2023-05-07T05:55:13;18.60;99.90
3727;DHT22;1879;45.876;12.300;2023-05-07T05:57:42;18.70;99.90
3727;DHT22;1879;45.876;12.300;2023-05-07T06:00:10;18.70;99.90
3727;DHT22;1879;45.876;12.300;2023-05-07T06:02:37;18.70;99.90
3727;DHT22;1879;45.876;12.300;2023-05-07T06:05:05;18.80;99.90
3727;DHT22;1879;45.876;12.300;2023-05-07T06:07:32;18.90;99.90
3727;DHT22;1879;45.876;12.300;2023-05-07T06:10:00;19.00;99.90
3727;DHT22;1879;45.876;12.300;2023-05-07T06:12:27;19.00;99.90
3727;DHT22;1879;45.876;12.300;2023-05-07T06:14:55;19.10;99.90
3727;DHT22;1879;45.876;12.300;2023-05-07T06:17:22;19.20;99.90
3727;DHT22;1879;45.876;12.300;2023-05-07T06:19:49;19.20;99.90
3727;DHT22;1879;45.876;12.300;2023-05-07T06:22:16;19.30;99.90
3727;DHT22;1879;45.876;12.300;2023-05-07T06:24:43;19.40;99.90
3727;DHT22;1879;45.876;12.300;2023-05-07T06:27:10;19.50;99.90
3727;DHT22;1879;45.876;12.300;2023-05-07T06:29:37;19.60;99.90
3727;DHT22;1879;45.876;12.300;2023-05-07T06:32:08;19.80;99.90
3727;DHT22;1879;45.876;12.300;2023-05-07T06:34:35;19.90;99.90
3727;DHT22;1879;45.876;12.300;2023-05-07T06:37:02;19.90;99.90
3727;DHT22;1879;45.876;12.300;2023-05-07T06:39:30;20.10;99.90
3727;DHT22;1879;45.876;12.300;2023-05-07T06:41:57;20.20;99.90
3727;DHT22;1879;45.876;12.300;2023-05-07T06:44:24;20.30;99.90
3727;DHT22;1879;45.876;12.300;2023-05-07T06:46:51;20.50;99.90
3727;DHT22;1879;45.876;12.300;2023-05-07T06:49:19;20.70;99.90
3727;DHT22;1879;45.876;12.300;2023-05-07T06:51:46;20.80;99.90
3727;DHT22;1879;45.876;12.300;2023-05-07T06:54:13;20.90;99.90
3727;DHT22;1879;45.876;12.300;2023-05-07T06:56:40;21.10;99.90
3727;DHT22;1879;45.876;12.300;2023-05-07T06:59:07;21.20;99.90
3727;DHT22;1879;45.876;12.300;2023-05-07T07:01:34;21.40;99.90
3727;DHT22;1879;45.876;12.300;2023-05-07T07:04:01;21.60;99.90
3727;DHT22;1879;45.876;12.300;2023-05-07T07:06:29;21.70;99.90
3727;DHT22;1879;45.876;12.300;2023-05-07T07:08:57;21.80;99.90
3727;DHT22;1879;45.876;12.300;2023-05-07T07:11:24;21.90;99.90
3727;DHT22;1879;45.876;12.300;2023-05-07T07:13:51;22.00;99.90
3727;DHT22;1879;45.876;12.300;2023-05-07T07:16:20;22.10;99.90
3727;DHT22;1879;45.876;12.300;2023-05-07T07:18:47;22.20;99.50
3727;DHT22;1879;45.876;12.300;2023-05-07T07:21:13;22.30;99.30
3727;DHT22;1879;45.876;12.300;2023-05-07T07:23:42;22.50;98.70
3727;DHT22;1879;45.876;12.300;2023-05-07T07:26:09;22.80;98.20
3727;DHT22;1879;45.876;12.300;2023-05-07T07:28:42;23.10;98.20
3727;DHT22;1879;45.876;12.300;2023-05-07T07:31:09;23.30;97.80
3727;DHT22;1879;45.876;12.300;2023-05-07T07:33:36;23.50;97.70
3727;DHT22;1879;45.876;12.300;2023-05-07T07:36:04;23.50;97.50
3727;DHT22;1879;45.876;12.300;2023-05-07T07:38:32;23.60;97.70
3727;DHT22;1879;45.876;12.300;2023-05-07T07:41:00;23.60;97.40
3727;DHT22;1879;45.876;12.300;2023-05-07T07:43:27;23.50;96.50
3727;DHT22;1879;45.876;12.300;2023-05-07T07:45:54;23.50;96.20
3727;DHT22;1879;45.876;12.300;2023-05-07T07:48:21;23.60;96.20
3727;DHT22;1879;45.876;12.300;2023-05-07T07:50:49;23.60;95.50
3727;DHT22;1879;45.876;12.300;2023-05-07T07:53:16;23.60;95.80
3727;DHT22;1879;45.876;12.300;2023-05-07T07:55:43;23.80;96.70
3727;DHT22;1879;45.876;12.300;2023-05-07T07:58:12;23.80;96.40
3727;DHT22;1879;45.876;12.300;2023-05-07T08:00:39;23.80;96.20
3727;DHT22;1879;45.876;12.300;2023-05-07T08:03:08;23.80;95.90
3727;DHT22;1879;45.876;12.300;2023-05-07T08:05:35;23.80;95.90
3727;DHT22;1879;45.876;12.300;2023-05-07T08:08:04;23.90;95.70
3727;DHT22;1879;45.876;12.300;2023-05-07T08:10:31;24.10;95.40
3727;DHT22;1879;45.876;12.300;2023-05-07T08:13:00;24.20;95.20
3727;DHT22;1879;45.876;12.300;2023-05-07T08:15:30;24.30;95.20
3727;DHT22;1879;45.876;12.300;2023-05-07T08:17:58;24.40;95.00
3727;DHT22;1879;45.876;12.300;2023-05-07T08:20:25;24.30;95.00
3727;DHT22;1879;45.876;12.300;2023-05-07T08:22:52;24.30;94.80
3727;DHT22;1879;45.876;12.300;2023-05-07T08:25:19;24.20;94.70
3727;DHT22;1879;45.876;12.300;2023-05-07T08:27:46;24.10;94.40
3727;DHT22;1879;45.876;12.300;2023-05-07T08:30:16;24.10;94.30
3727;DHT22;1879;45.876;12.300;2023-05-07T08:32:44;24.00;94.30
3727;DHT22;1879;45.876;12.300;2023-05-07T08:35:11;24.10;95.10
3727;DHT22;1879;45.876;12.300;2023-05-07T08:37:38;24.10;94.50
3727;DHT22;1879;45.876;12.300;2023-05-07T08:40:06;24.20;94.00
3727;DHT22;1879;45.876;12.300;2023-05-07T08:42:35;24.30;93.90
3727;DHT22;1879;45.876;12.300;2023-05-07T08:45:04;24.50;93.20
3727;DHT22;1879;45.876;12.300;2023-05-07T08:47:40;24.60;93.90
3727;DHT22;1879;45.876;12.300;2023-05-07T08:50:10;24.70;93.70
3727;DHT22;1879;45.876;12.300;2023-05-07T08:52:37;24.90;92.30
3727;DHT22;1879;45.876;12.300;2023-05-07T08:55:07;25.00;90.90
3727;DHT22;1879;45.876;12.300;2023-05-07T08:57:34;25.20;90.40
3727;DHT22;1879;45.876;12.300;2023-05-07T09:00:01;25.40;90.60
3727;DHT22;1879;45.876;12.300;2023-05-07T09:02:29;25.60;89.10
3727;DHT22;1879;45.876;12.300;2023-05-07T09:04:56;25.60;90.80
3727;DHT22;1879;45.876;12.300;2023-05-07T09:07:25;25.50;91.00
3727;DHT22;1879;45.876;12.300;2023-05-07T09:09:52;25.50;90.60
3727;DHT22;1879;45.876;12.300;2023-05-07T09:12:19;25.50;91.10
3727;DHT22;1879;45.876;12.300;2023-05-07T09:14:46;25.50;90.50
3727;DHT22;1879;45.876;12.300;2023-05-07T09:17:13;25.40;87.20
3727;DHT22;1879;45.876;12.300;2023-05-07T09:19:40;25.40;85.60
3727;DHT22;1879;45.876;12.300;2023-05-07T09:22:07;25.40;84.40
3727;DHT22;1879;45.876;12.300;2023-05-07T09:24:37;25.30;85.00
3727;DHT22;1879;45.876;12.300;2023-05-07T09:27:04;25.20;84.40
3727;DHT22;1879;45.876;12.300;2023-05-07T09:29:31;25.00;91.10
3727;DHT22;1879;45.876;12.300;2023-05-07T09:32:01;24.90;87.70
3727;DHT22;1879;45.876;12.300;2023-05-07T09:34:29;24.70;84.90
3727;DHT22;1879;45.876;12.300;2023-05-07T09:36:56;24.40;83.10
3727;DHT22;1879;45.876;12.300;2023-05-07T09:39:24;24.30;83.30
3727;DHT22;1879;45.876;12.300;2023-05-07T09:41:52;24.30;84.40
3727;DHT22;1879;45.876;12.300;2023-05-07T09:44:20;24.20;83.50
3727;DHT22;1879;45.876;12.300;2023-05-07T09:46:53;24.10;82.70
3727;DHT22;1879;45.876;12.300;2023-05-07T09:49:22;24.10;85.40
3727;DHT22;1879;45.876;12.300;2023-05-07T09:51:51;24.10;89.00
3727;DHT22;1879;45.876;12.300;2023-05-07T09:54:18;24.10;89.00
3727;DHT22;1879;45.876;12.300;2023-05-07T09:56:46;24.00;87.60
3727;DHT22;1879;45.876;12.300;2023-05-07T09:59:16;24.00;88.30
3727;DHT22;1879;45.876;12.300;2023-05-07T10:01:44;24.20;90.00
3727;DHT22;1879;45.876;12.300;2023-05-07T10:04:11;24.20;88.00
3727;DHT22;1879;45.876;12.300;2023-05-07T10:06:39;24.30;86.90
3727;DHT22;1879;45.876;12.300;2023-05-07T10:09:07;24.40;88.50
3727;DHT22;1879;45.876;12.300;2023-05-07T10:11:36;24.40;84.90
3727;DHT22;1879;45.876;12.300;2023-05-07T10:14:03;24.50;84.90
3727;DHT22;1879;45.876;12.300;2023-05-07T10:16:34;24.70;85.00
3727;DHT22;1879;45.876;12.300;2023-05-07T10:19:02;24.80;85.80
3727;DHT22;1879;45.876;12.300;2023-05-07T10:21:30;24.90;85.50
3727;DHT22;1879;45.876;12.300;2023-05-07T10:24:00;25.10;86.80
3727;DHT22;1879;45.876;12.300;2023-05-07T10:26:30;25.20;84.60
3727;DHT22;1879;45.876;12.300;2023-05-07T10:29:02;25.40;84.60
3727;DHT22;1879;45.876;12.300;2023-05-07T10:31:52;25.50;85.50
3727;DHT22;1879;45.876;12.300;2023-05-07T10:34:23;25.60;82.70
3727;DHT22;1879;45.876;12.300;2023-05-07T10:36:51;25.60;83.20
3727;DHT22;1879;45.876;12.300;2023-05-07T10:39:19;25.70;82.80
3727;DHT22;1879;45.876;12.300;2023-05-07T10:41:47;25.70;82.00
3727;DHT22;1879;45.876;12.300;2023-05-07T10:44:25;25.70;80.10
3727;DHT22;1879;45.876;12.300;2023-05-07T10:47:11;26.00;81.90
3727;DHT22;1879;45.876;12.300;2023-05-07T10:52:38;26.30;80.80
3727;DHT22;1879;45.876;12.300;2023-05-07T10:55:21;26.30;79.60
3727;DHT22;1879;45.876;12.300;2023-05-07T10:57:50;26.40;78.90
3727;DHT22;1879;45.876;12.300;2023-05-07T11:03:06;26.70;79.80
3727;DHT22;1879;45.876;12.300;2023-05-07T11:05:34;26.80;79.50
3727;DHT22;1879;45.876;12.300;2023-05-07T11:08:01;27.00;78.10
3727;DHT22;1879;45.876;12.300;2023-05-07T11:10:48;27.00;78.20
3727;DHT22;1879;45.876;12.300;2023-05-07T11:13:16;27.10;76.40
3727;DHT22;1879;45.876;12.300;2023-05-07T11:15:45;27.20;78.10
3727;DHT22;1879;45.876;12.300;2023-05-07T11:18:15;27.10;76.70
3727;DHT22;1879;45.876;12.300;2023-05-07T11:20:56;27.20;76.10
3727;DHT22;1879;45.876;12.300;2023-05-07T11:26:47;27.20;76.30
3727;DHT22;1879;45.876;12.300;2023-05-07T11:29:16;27.30;77.00
3727;DHT22;1879;45.876;12.300;2023-05-07T11:31:43;27.60;77.10
3727;DHT22;1879;45.876;12.300;2023-05-07T11:34:12;28.00;77.10
3727;DHT22;1879;45.876;12.300;2023-05-07T11:36:43;28.40;78.30
3727;DHT22;1879;45.876;12.300;2023-05-07T11:39:24;28.50;75.00
3727;DHT22;1879;45.876;12.300;2023-05-07T11:41:51;29.00;72.80
3727;DHT22;1879;45.876;12.300;2023-05-07T11:44:18;29.20;71.20
3727;DHT22;1879;45.876;12.300;2023-05-07T11:46:45;29.50;70.10
3727;DHT22;1879;45.876;12.300;2023-05-07T11:49:14;29.80;69.40
3727;DHT22;1879;45.876;12.300;2023-05-07T11:51:41;29.60;68.40
3727;DHT22;1879;45.876;12.300;2023-05-07T11:54:09;29.60;68.30
3727;DHT22;1879;45.876;12.300;2023-05-07T11:56:39;29.50;69.10
3727;DHT22;1879;45.876;12.300;2023-05-07T11:59:06;29.30;69.50
3727;DHT22;1879;45.876;12.300;2023-05-07T12:01:35;28.60;67.90
3727;DHT22;1879;45.876;12.300;2023-05-07T12:04:03;28.70;69.40
3727;DHT22;1879;45.876;12.300;2023-05-07T12:06:36;29.10;70.30
3727;DHT22;1879;45.876;12.300;2023-05-07T12:09:04;29.10;69.20
3727;DHT22;1879;45.876;12.300;2023-05-07T12:11:33;28.90;72.50
3727;DHT22;1879;45.876;12.300;2023-05-07T12:14:00;28.40;71.30
3727;DHT22;1879;45.876;12.300;2023-05-07T12:16:27;28.40;72.10
3727;DHT22;1879;45.876;12.300;2023-05-07T12:18:55;28.40;72.30
3727;DHT22;1879;45.876;12.300;2023-05-07T12:21:24;28.70;71.50
3727;DHT22;1879;45.876;12.300;2023-05-07T12:23:53;28.90;71.50
3727;DHT22;1879;45.876;12.300;2023-05-07T12:26:20;29.20;72.40
3727;DHT22;1879;45.876;12.300;2023-05-07T12:28:47;29.00;71.50
3727;DHT22;1879;45.876;12.300;2023-05-07T12:31:14;28.30;71.40
3727;DHT22;1879;45.876;12.300;2023-05-07T12:33:42;27.80;72.60
3727;DHT22;1879;45.876;12.300;2023-05-07T12:36:12;27.60;72.50
3727;DHT22;1879;45.876;12.300;2023-05-07T12:38:40;27.20;73.70
3727;DHT22;1879;45.876;12.300;2023-05-07T12:41:09;27.00;74.50
3727;DHT22;1879;45.876;12.300;2023-05-07T12:43:39;26.90;75.00
3727;DHT22;1879;45.876;12.300;2023-05-07T12:46:07;26.60;76.40
3727;DHT22;1879;45.876;12.300;2023-05-07T12:48:36;26.40;76.70
3727;DHT22;1879;45.876;12.300;2023-05-07T12:51:05;26.30;77.00
3727;DHT22;1879;45.876;12.300;2023-05-07T12:53:33;26.30;78.00
3727;DHT22;1879;45.876;12.300;2023-05-07T12:56:02;26.40;80.00
3727;DHT22;1879;45.876;12.300;2023-05-07T12:58:32;26.40;78.80
3727;DHT22;1879;45.876;12.300;2023-05-07T13:01:03;26.40;79.60
3727;DHT22;1879;45.876;12.300;2023-05-07T13:03:32;26.40;80.00
3727;DHT22;1879;45.876;12.300;2023-05-07T13:06:00;26.30;79.90
3727;DHT22;1879;45.876;12.300;2023-05-07T13:08:28;26.20;79.50
3727;DHT22;1879;45.876;12.300;2023-05-07T13:10:57;26.00;80.40
3727;DHT22;1879;45.876;12.300;2023-05-07T13:13:24;26.00;81.40
3727;DHT22;1879;45.876;12.300;2023-05-07T13:15:52;26.10;80.20
3727;DHT22;1879;45.876;12.300;2023-05-07T13:18:19;26.00;79.50
3727;DHT22;1879;45.876;12.300;2023-05-07T13:20:46;26.10;79.30
3727;DHT22;1879;45.876;12.300;2023-05-07T13:23:13;26.30;79.70
3727;DHT22;1879;45.876;12.300;2023-05-07T13:25:40;26.60;79.90
3727;DHT22;1879;45.876;12.300;2023-05-07T13:28:07;26.90;79.00
3727;DHT22;1879;45.876;12.300;2023-05-07T13:30:34;27.20;77.10
3727;DHT22;1879;45.876;12.300;2023-05-07T13:33:02;27.90;76.30
3727;DHT22;1879;45.876;12.300;2023-05-07T13:35:29;29.50;74.50
3727;DHT22;1879;45.876;12.300;2023-05-07T13:37:56;30.50;71.40
3727;DHT22;1879;45.876;12.300;2023-05-07T13:40:24;30.20;70.00
3727;DHT22;1879;45.876;12.300;2023-05-07T13:42:51;29.70;68.70
3727;DHT22;1879;45.876;12.300;2023-05-07T13:45:18;29.40;69.20
3727;DHT22;1879;45.876;12.300;2023-05-07T13:47:45;29.30;70.80
3727;DHT22;1879;45.876;12.300;2023-05-07T13:50:14;29.60;71.80
3727;DHT22;1879;45.876;12.300;2023-05-07T13:52:41;30.20;71.70
3727;DHT22;1879;45.876;12.300;2023-05-07T13:55:11;31.00;68.40
3727;DHT22;1879;45.876;12.300;2023-05-07T13:57:38;30.70;68.30
3727;DHT22;1879;45.876;12.300;2023-05-07T14:00:06;30.80;71.30
3727;DHT22;1879;45.876;12.300;2023-05-07T14:02:34;31.10;67.60
3727;DHT22;1879;45.876;12.300;2023-05-07T14:05:00;31.10;68.20
3727;DHT22;1879;45.876;12.300;2023-05-07T14:07:29;31.40;67.50
3727;DHT22;1879;45.876;12.300;2023-05-07T14:09:56;31.10;68.60
3727;DHT22;1879;45.876;12.300;2023-05-07T14:12:23;30.70;68.10
3727;DHT22;1879;45.876;12.300;2023-05-07T14:14:50;30.40;69.80
3727;DHT22;1879;45.876;12.300;2023-05-07T14:17:18;30.10;69.00
3727;DHT22;1879;45.876;12.300;2023-05-07T14:19:45;30.00;67.20
3727;DHT22;1879;45.876;12.300;2023-05-07T14:22:13;30.50;68.00
3727;DHT22;1879;45.876;12.300;2023-05-07T14:24:42;30.60;67.50
3727;DHT22;1879;45.876;12.300;2023-05-07T14:27:09;30.40;66.50
3727;DHT22;1879;45.876;12.300;2023-05-07T14:29:36;30.00;66.40
3727;DHT22;1879;45.876;12.300;2023-05-07T14:32:03;29.80;66.40
3727;DHT22;1879;45.876;12.300;2023-05-07T14:34:31;29.70;68.00
3727;DHT22;1879;45.876;12.300;2023-05-07T14:36:59;30.20;68.50
3727;DHT22;1879;45.876;12.300;2023-05-07T14:39:26;30.70;67.70
3727;DHT22;1879;45.876;12.300;2023-05-07T14:41:54;30.80;67.80
3727;DHT22;1879;45.876;12.300;2023-05-07T14:44:21;31.00;66.00
3727;DHT22;1879;45.876;12.300;2023-05-07T14:46:48;31.20;67.00
3727;DHT22;1879;45.876;12.300;2023-05-07T14:49:15;31.00;65.50
3727;DHT22;1879;45.876;12.300;2023-05-07T14:51:43;30.40;64.20
3727;DHT22;1879;45.876;12.300;2023-05-07T14:54:11;30.00;65.00
3727;DHT22;1879;45.876;12.300;2023-05-07T14:56:38;29.70;65.00
3727;DHT22;1879;45.876;12.300;2023-05-07T14:59:07;29.60;67.00
3727;DHT22;1879;45.876;12.300;2023-05-07T15:01:34;29.60;68.60
3727;DHT22;1879;45.876;12.300;2023-05-07T15:04:03;29.40;68.80
3727;DHT22;1879;45.876;12.300;2023-05-07T15:06:30;29.00;69.10
3727;DHT22;1879;45.876;12.300;2023-05-07T15:08:57;28.40;68.00
3727;DHT22;1879;45.876;12.300;2023-05-07T15:11:24;28.10;69.40
3727;DHT22;1879;45.876;12.300;2023-05-07T15:13:51;27.80;70.40
3727;DHT22;1879;45.876;12.300;2023-05-07T15:16:19;27.70;71.50
3727;DHT22;1879;45.876;12.300;2023-05-07T15:18:46;27.70;71.70
3727;DHT22;1879;45.876;12.300;2023-05-07T15:21:13;27.70;73.80
3727;DHT22;1879;45.876;12.300;2023-05-07T15:23:41;27.60;74.60
3727;DHT22;1879;45.876;12.300;2023-05-07T15:26:09;27.40;74.80
3727;DHT22;1879;45.876;12.300;2023-05-07T15:28:36;27.30;75.80
3727;DHT22;1879;45.876;12.300;2023-05-07T15:31:03;27.20;75.70
3727;DHT22;1879;45.876;12.300;2023-05-07T15:33:32;27.30;74.90
3727;DHT22;1879;45.876;12.300;2023-05-07T15:35:59;27.30;74.80
3727;DHT22;1879;45.876;12.300;2023-05-07T15:38:26;27.40;75.20
3727;DHT22;1879;45.876;12.300;2023-05-07T15:40:53;27.40;75.00
3727;DHT22;1879;45.876;12.300;2023-05-07T15:43:20;27.50;75.40
3727;DHT22;1879;45.876;12.300;2023-05-07T15:45:47;27.60;76.10
3727;DHT22;1879;45.876;12.300;2023-05-07T15:48:14;27.70;74.30
3727;DHT22;1879;45.876;12.300;2023-05-07T15:50:42;27.70;74.10
3727;DHT22;1879;45.876;12.300;2023-05-07T15:53:09;27.70;74.60
3727;DHT22;1879;45.876;12.300;2023-05-07T15:55:39;27.70;74.40
3727;DHT22;1879;45.876;12.300;2023-05-07T15:58:07;27.60;74.60